• Join FlightAware (Why Join?)
  • Login
  • US Flag 
Rudolph Flight #1: Arrived! 
04:38PM EST


 

Airport Tracker/Info


-or-


 

Live Flight TrackerFlight Track Log ✈ ELJ613 ✈ 13-May-2013 ✈ 1A5 - KIND

Flight Track Log - Related Links

Times and Time Zones

All times are in EDT time to prevent confusion due to time zone crossing. See the ELJ613 flight status page for this flight to view local times or setup timezone preferences in your user account.

Time Position Orientation Groundspeed Altitude Reporting Facility
EDT Latitude Longitude Course Direction KTS MPH feet Rate Location/Type
03:40PM 35.6483 -83.7195 329° Northwest  Level FlightAware Approximate
03:41PM 35.7185 -83.7722 329° Northwest  Level FlightAware Approximate
03:46PM 36.0774 -84.0183 332° Northwest  Level FlightAware Approximate
03:47PM 36.1493 -84.0678 331° Northwest  Level FlightAware Approximate
03:48PM 36.2209 -84.1179 331° Northwest  Level FlightAware Approximate
03:49PM 36.2898 -84.1731 321° Northwest  Level FlightAware Approximate
03:50PM 36.3580 -84.2295 330° Northwest  Level FlightAware Approximate
03:51PM 36.4293 -84.2804 330° Northwest  Level FlightAware Approximate
03:52PM 36.4986 -84.3352 330° Northwest  Level FlightAware Approximate
03:53PM 36.5696 -84.3869 330° Northwest  Level FlightAware Approximate
03:54PM 36.6406 -84.4386 330° Northwest  Level FlightAware Approximate
03:55PM 36.7116 -84.4902 330° Northwest  Level FlightAware Approximate
03:56PM 36.7827 -84.5419 330° Northwest  Level FlightAware Approximate
03:57PM 36.8533 -84.5946 329° Northwest  Level FlightAware Approximate
03:58PM 36.9235 -84.6481 329° Northwest  Level FlightAware Approximate
03:59PM 36.9937 -84.7018 329° Northwest  Level FlightAware Approximate
04:00PM 37.0639 -84.7555 329° Northwest  Level FlightAware Approximate
04:01PM 37.1340 -84.8094 329° Northwest  Level FlightAware Approximate
04:02PM 37.2041 -84.8634 328° Northwest  Level FlightAware Approximate
04:03PM 37.2742 -84.9174 328° Northwest  Level FlightAware Approximate
04:04PM 37.3442 -84.9716 328° Northwest  Level FlightAware Approximate
04:05PM 37.4143 -85.0258 328° Northwest  Level FlightAware Approximate
04:06PM 37.4843 -85.0802 328° Northwest  Level FlightAware Approximate
04:07PM 37.5543 -85.1347 328° Northwest  Level FlightAware Approximate
04:08PM 37.6237 -85.1903 322° Northwest  Level FlightAware Approximate
04:09PM 37.6935 -85.2451 329° Northwest  Level FlightAware Approximate
04:10PM 37.7642 -85.2981 329° Northwest  Level FlightAware Approximate
04:11PM 37.8324 -85.3562 326° Northwest  Level FlightAware Approximate
04:12PM 37.9006 -85.4146 326° Northwest  Level FlightAware Approximate
04:13PM 37.9687 -85.4731 326° Northwest  Level FlightAware Approximate
04:14PM 38.0382 -85.5287 329° Northwest  Level FlightAware Approximate
04:15PM 38.1126 -85.5725 340° North  Level FlightAware Approximate
04:16PM 38.1899 -85.6081 340° North  Level FlightAware Approximate
04:17PM 38.2672 -85.6438 340° North  Level FlightAware Approximate
04:18PM 38.3454 -85.6762 345° North  Level FlightAware Approximate
04:19PM 38.4233 -85.7094 340° North  Level FlightAware Approximate
04:20PM 38.5007 -85.7451 340° North  Level FlightAware Approximate
04:21PM 38.5780 -85.7809 340° North  Level FlightAware Approximate
04:22PM 38.6563 -85.8133 342° North  Level FlightAware Approximate
04:23PM 38.7346 -85.8455 342° North  Level FlightAware Approximate
04:24PM 38.8129 -85.8778 342° North  Level FlightAware Approximate
04:25PM 38.8902 -85.9134 336° Northwest  Level FlightAware Approximate
04:26PM 38.9653 -85.9564 336° Northwest  Level FlightAware Approximate
04:27PM 39.0437 -85.9878 342° North  Level FlightAware Approximate
04:28PM 39.1217 -86.0212 342° North  Level FlightAware Approximate
04:29PM 39.1999 -86.0541 342° North  Level FlightAware Approximate
04:30PM 39.2782 -86.0867 342° North  Level FlightAware Approximate
04:31PM 39.3563 -86.1198 339° North  Level FlightAware Approximate
04:32PM 39.4331 -86.1581 339° North  Level FlightAware Approximate
04:33PM 39.5098 -86.1965 339° North  Level FlightAware Approximate
04:34PM 39.5866 -86.2346 343° North  Level FlightAware Approximate
04:35PM 39.6652 -86.2661 343° North  Level FlightAware Approximate
04:36PM 39.7167 -86.2833 346° North  Level FlightAware Approximate
04:37PM 39.7173 -86.2947 346° North  Level Estimated
04:38PM 39.7173 -86.2947 346° North  Level Estimated
04:39PM 39.7173 -86.2947 346° North  Level Estimated
04:40PM 39.7173 -86.2947 346° North  Level Estimated
04:41PM 39.7173 -86.2947 346° North  Level Estimated
04:42PM 39.7173 -86.2947 346° North  Level Estimated
04:43PM 39.7173 -86.2947 346° North  Level Estimated
04:44PM 39.7173 -86.2947 346° North  Level Estimated
04:45PM 39.7173 -86.2947 346° North  Level Estimated
04:46PM 39.7173 -86.2947 346° North  Level Estimated
04:47PM 39.7173 -86.2947 346° North  Level Estimated
04:48PM 39.7173 -86.2947 346° North  Level Estimated
04:49PM 39.7173 -86.2947 346° North  Level Estimated
04:50PM 39.7173 -86.2947 346° North  Level Estimated
04:51PM 39.7173 -86.2947 346° North  Level Estimated